Aérodrome :
LOGIN :

S'inscrire | Disclaimer

   EN    FR    IT 

 










Légende :    VFR   VFR Marginal   IFR   IFR Intensif   IFR Très Intensif
Visi : 
Plafond : 
>= 8 km
>= 3000ft
5 à 8 km
1000 à 3000 ft
1500m à 5 km
500 à 1000 ft
800 à 1500m
200 à 500 ft
< 800m
< 200 ft
Symboles :   Orages  Brouillard  Fortes neiges  Fortes précipitations  Vent > 20 kt
SIGMETs :   Divers  Orages  Givrage  Turbulence  Onde Orograph.  Cendres Volcan.







- Altitude de l'aérodrome : 788 ft
- Code IATA : DCM
- Voir les cartes d'approche


LFCK - Castres-Mazamet

DERNIER METAR :
  • 260900Z AUTO 28011KT CAVOK 14/04 Q1023 NOSIG

METARs EXPIRÉS :
  • 260830Z AUTO 27009KT 250V310 CAVOK 13/06 Q1023 NOSIG
  • 260800Z AUTO 28009KT CAVOK 13/06 Q1023 NOSIG
  • 260730Z AUTO 27007KT 240V310 9999 FEW020 12/07 Q1023 NOSIG
  • 260700Z AUTO 26008KT 230V300 9999 FEW014 11/08 Q1023 TEMPO BKN013
  • 260630Z AUTO 26010KT 9999 BKN014 11/08 Q1023 BECMG BKN035

TAF TAF LFCK
Valide du 26 à 09h jusqu'au 26 à 18h UTC


260800Z 2609/2618 29008KT 9999 SCT014
BECMG 2610/2612 CAVOK
PROB30
TEMPO 2612/2616 30015G25KT
Pas de NOTAMs connus pour ce terrain.



MET'MAP, la Météo Aéronautique d'un coup d'oeil ! - Copyright ORBIFLY Décembre 2007 - Disclaimer

ORBIFLY MET'MAP TEAM :

Programmation & Développement : Alexandra Zaïnal
Conception & Développement : Baudouin d'Aumeries
Co-Programmation & Développement : Marc-Olivier Méhu
Soutien technique & logistique : Manuel Goepfert

Contact : metmap@orbifly.com




SOURCES & CREDITS :

   NOAA